Pacific Treasures — V7FM9 — position and weather

sailwx.info

Track history (hours):
 
Tides and Currents Weather Stations Pressure Air Temp Water Temp Dewpoint Dewpoint Depression Visibility Wind Speed Wind Dir Waves Ship Positions

Pacific Treasures

Last reported at 2018-Feb-19 17:45 UTC. Time now 2018-Feb-20 23:07 UTC.
Position N 28°35' W 094°15'.

Length 256 m; draft 10.2 m.

Type: Tanker. MMSI: 538006773.

Date/timePositionNaut miles runAvg speedWind from/ knotsBaromVisibWave heightAir tempDewpointWater temp
2018-Feb-19 17:45N 28°35' W 094°15'0 0.0
2018-Feb-19 17:27N 28°35' W 094°15'0 0.0
2018-Feb-19 16:42N 28°35' W 094°15'0 0.0
2018-Feb-19 08:39N 28°35' W 094°15'0 0.0
2018-Feb-19 08:24N 28°35' W 094°15'0 0.0
2018-Feb-19 07:54N 28°35' W 094°15'0 0.0
2018-Feb-19 07:30N 28°35' W 094°15'0 0.0
2018-Feb-19 07:00N 28°35' W 094°15'0 0.1
2018-Feb-19 06:12N 28°35' W 094°15'0 0.5
2018-Feb-19 06:00N 28°35' W 094°15'2 3.7
2018-Feb-19 05:30N 28°36' W 094°13'4 7.7
2018-Feb-19 05:00N 28°37' W 094°09'510.0
2018-Feb-19 04:30N 28°40' W 094°05'612.9
2018-Feb-19 04:00N 28°44' W 093°59'712.8
2018-Feb-19 03:28N 28°48' W 093°53'612.7
2018-Feb-19 02:59N 28°52' W 093°47'2312.1
2018-Feb-19 01:02N 29°14' W 093°40'012.0
2018-Feb-19 01:00N 29°15' W 093°40'910.4
2018-Feb-19 00:09N 29°24' W 093°41'2 7.2
2018-Feb-18 23:54N 29°25' W 093°40'410.6
2018-Feb-18 23:30N 29°30' W 093°41'612.6
2018-Feb-18 23:00N 29°34' W 093°46'611.5
2018-Feb-18 22:30N 29°39' W 093°50'4 8.9
2018-Feb-18 22:00N 29°43' W 093°51'3 6.8
2018-Feb-18 21:30N 29°45' W 093°54'4 7.4
2018-Feb-18 21:01N 29°48' W 093°57'4 7.1
2018-Feb-18 20:30N 29°51' W 093°57'4 7.5
2018-Feb-18 20:00N 29°54' W 093°54'4 7.5
2018-Feb-18 19:30N 29°57' W 093°52'2 4.7
2018-Feb-18 19:00N 29°59' W 093°53'3 6.6
2018-Feb-18 18:30N 29°60' W 093°57'2 4.7
2018-Feb-18 18:00N 30°01' W 093°60'0 0.3
2018-Feb-18 17:30N 30°01' W 093°60'0 0.0
2018-Feb-18 16:59N 30°01' W 093°60'0 0.0
2018-Feb-18 16:29N 30°01' W 093°60'0 0.0
2018-Feb-18 15:59N 30°01' W 093°60'0 0.0
2018-Feb-18 15:29N 30°01' W 093°60'0 0.0
2018-Feb-18 14:59N 30°01' W 093°60'0 0.0
2018-Feb-18 14:29N 30°01' W 093°60'0 0.0
2018-Feb-18 14:01N 30°01' W 093°60'0 0.0
2018-Feb-18 13:28N 30°01' W 093°60'0 0.0
2018-Feb-18 12:58N 30°01' W 093°60'0 0.0
2018-Feb-18 12:28N 30°01' W 093°60'0 0.0
2018-Feb-18 12:00N 30°01' W 093°60'0 0.0
2018-Feb-18 11:28N 30°01' W 093°60'0 0.0
2018-Feb-18 10:58N 30°01' W 093°60'0 0.0
2018-Feb-18 10:28N 30°01' W 093°60'0 0.0
2018-Feb-18 09:58N 30°01' W 093°60'0 0.0
2018-Feb-18 09:28N 30°01' W 093°60'0 0.0
2018-Feb-18 09:01N 30°01' W 093°60'0 0.0
2018-Feb-18 08:30N 30°01' W 093°60'0 0.0
2018-Feb-18 07:57N 30°01' W 093°60'0 0.0
2018-Feb-18 07:30N 30°01' W 093°60'0 0.0
2018-Feb-18 07:00N 30°01' W 093°60'0 0.0
2018-Feb-18 06:30N 30°01' W 093°60'0 0.0
2018-Feb-18 05:57N 30°01' W 093°60'0 0.0
2018-Feb-18 05:30N 30°01' W 093°60'0 0.0
2018-Feb-18 05:00N 30°01' W 093°60'0 0.1
2018-Feb-18 04:30N 30°01' W 093°60'0 0.0
2018-Feb-18 04:00N 30°01' W 093°60'0 0.0
2018-Feb-18 03:30N 30°01' W 093°60'0 0.0
2018-Feb-18 03:00N 30°01' W 093°60'0 0.0
2018-Feb-18 02:30N 30°01' W 093°60'0 0.1
2018-Feb-18 02:00N 30°01' W 093°60'0 0.0
2018-Feb-18 01:30N 30°01' W 093°60'0 0.0
2018-Feb-18 01:00N 30°01' W 093°60'0 0.0
2018-Feb-18 00:30N 30°01' W 093°60'0 0.0
2018-Feb-18 00:00N 30°01' W 093°60'0 0.0
2018-Feb-17 23:30N 30°01' W 093°60'0 0.0
2018-Feb-17 23:00N 30°01' W 093°60'0 0.0
2018-Feb-17 22:30N 30°01' W 093°60'0 0.0
2018-Feb-17 22:00N 30°01' W 093°60'0 0.2
2018-Feb-17 21:30N 30°01' W 093°60'0 0.5
2018-Feb-17 21:00N 30°01' W 093°59'0 0.1
2018-Feb-17 20:30N 30°01' W 093°59'0 0.0
2018-Feb-17 19:54N 30°01' W 093°59'0 0.0
2018-Feb-17 19:30N 30°01' W 093°59'0 0.0
2018-Feb-17 18:57N 30°01' W 093°59'0 0.0
2018-Feb-17 18:27N 30°01' W 093°59'0 0.0
2018-Feb-17 18:00N 30°01' W 093°59'0 0.0
2018-Feb-17 17:30N 30°01' W 093°59'0 0.0
2018-Feb-17 17:00N 30°01' W 093°59'0 0.0
2018-Feb-17 16:30N 30°01' W 093°59'0 0.0
2018-Feb-17 16:00N 30°01' W 093°59'0 0.0
2018-Feb-17 15:30N 30°01' W 093°59'0 0.0
2018-Feb-17 15:00N 30°01' W 093°59'0 0.0
2018-Feb-17 14:27N 30°01' W 093°59'0 0.0
2018-Feb-17 14:00N 30°01' W 093°59'0 0.0
2018-Feb-17 13:30N 30°01' W 093°59'0 0.0
2018-Feb-17 13:00N 30°01' W 093°59'0 0.0
2018-Feb-17 12:24N 30°01' W 093°59'0 0.0
2018-Feb-17 12:00N 30°01' W 093°59'0 0.0
2018-Feb-17 11:30N 30°01' W 093°59'0 0.0
2018-Feb-17 11:00N 30°01' W 093°59'0 0.0
2018-Feb-17 10:30N 30°01' W 093°59'0 0.0
2018-Feb-17 10:00N 30°01' W 093°59'0 0.0
2018-Feb-17 09:27N 30°01' W 093°59'0 0.0
2018-Feb-17 09:00N 30°01' W 093°59'0 0.0
2018-Feb-17 08:30N 30°01' W 093°59'0 0.0
2018-Feb-17 08:00N 30°01' W 093°59'0 0.0
2018-Feb-17 07:30N 30°01' W 093°59'0 0.0
2018-Feb-17 07:00N 30°01' W 093°59'0 0.0
2018-Feb-17 06:30N 30°01' W 093°59'0 0.0
2018-Feb-17 06:00N 30°01' W 093°59'0 0.0
2018-Feb-17 05:30N 30°01' W 093°59'0 0.0
2018-Feb-17 05:00N 30°01' W 093°59'0 0.0
2018-Feb-17 04:30N 30°01' W 093°59'0 0.0
2018-Feb-17 03:57N 30°01' W 093°59'0 0.0
2018-Feb-17 03:30N 30°01' W 093°59'0 0.0
2018-Feb-17 02:57N 30°01' W 093°59'0 0.0
2018-Feb-17 02:30N 30°01' W 093°59'0 0.0
2018-Feb-17 02:00N 30°01' W 093°59'0 0.0
2018-Feb-17 01:30N 30°01' W 093°59'0 0.0
2018-Feb-17 01:00N 30°01' W 093°59'0 0.0
2018-Feb-17 00:27N 30°01' W 093°59'0 0.0
2018-Feb-17 00:00N 30°01' W 093°59'0 0.0
2018-Feb-16 23:27N 30°01' W 093°59'0 0.0
2018-Feb-16 23:00N 30°01' W 093°59'0 0.0
2018-Feb-16 22:30N 30°01' W 093°59'0 0.0
2018-Feb-16 22:00N 30°01' W 093°59'0 0.0
2018-Feb-16 21:27N 30°01' W 093°59'0 0.0
2018-Feb-16 21:00N 30°01' W 093°59'0 0.0
2018-Feb-16 20:30N 30°01' W 093°59'0 0.0
2018-Feb-16 20:00N 30°01' W 093°59'0 0.0
2018-Feb-16 19:30N 30°01' W 093°59'0 0.0
2018-Feb-16 19:00N 30°01' W 093°59'0 0.0
2018-Feb-16 18:30N 30°01' W 093°59'0 0.0
2018-Feb-16 18:00N 30°01' W 093°59'0 0.0
2018-Feb-16 17:30N 30°01' W 093°59'0 0.0
2018-Feb-16 17:00N 30°01' W 093°59'0 0.0
2018-Feb-16 16:24N 30°01' W 093°59'0 0.0
2018-Feb-16 16:00N 30°01' W 093°59'0 0.0
2018-Feb-16 15:27N 30°01' W 093°59'0 0.0
2018-Feb-16 15:00N 30°01' W 093°59'0 0.0
2018-Feb-16 14:30N 30°01' W 093°59'0 0.0
2018-Feb-16 14:00N 30°01' W 093°59'0 0.0
2018-Feb-16 13:30N 30°01' W 093°59'0 0.0
2018-Feb-16 13:00N 30°01' W 093°59'0 0.0
2018-Feb-16 12:30N 30°01' W 093°59'0 0.0
2018-Feb-16 12:00N 30°01' W 093°59'0 0.0
2018-Feb-16 11:30N 30°01' W 093°59'0 0.0
2018-Feb-16 10:57N 30°01' W 093°59'0 0.0
2018-Feb-16 10:30N 30°01' W 093°59'0 0.0
2018-Feb-16 10:00N 30°01' W 093°59'0 0.0
2018-Feb-16 09:30N 30°01' W 093°59'0 0.0
2018-Feb-16 08:57N 30°01' W 093°59'0 0.0
2018-Feb-16 08:30N 30°01' W 093°59'0 0.0
2018-Feb-16 08:00N 30°01' W 093°59'0 0.0
2018-Feb-16 07:30N 30°01' W 093°59'0 0.0
2018-Feb-16 07:00N 30°01' W 093°59'0 0.0
2018-Feb-16 06:24N 30°01' W 093°59'0 0.0
2018-Feb-16 06:00N 30°01' W 093°59'0 0.0
2018-Feb-16 05:30N 30°01' W 093°59'0 0.0
2018-Feb-16 04:51N 30°01' W 093°59'0 0.0
2018-Feb-16 04:30N 30°01' W 093°59'0 0.0
2018-Feb-16 04:00N 30°01' W 093°59'0 0.0
2018-Feb-16 03:30N 30°01' W 093°59'0 0.0
2018-Feb-16 02:57N 30°01' W 093°59'0 0.0
2018-Feb-16 02:30N 30°01' W 093°59'0 0.0
2018-Feb-16 02:00N 30°01' W 093°59'0 0.0
2018-Feb-16 01:30N 30°01' W 093°59'0 0.0
2018-Feb-16 01:00N 30°01' W 093°59'0 0.0
2018-Feb-16 00:30N 30°01' W 093°59'0 0.0
2018-Feb-15 23:57N 30°01' W 093°59'0 0.0
2018-Feb-15 23:27N 30°01' W 093°59'0 0.0
2018-Feb-15 23:00N 30°01' W 093°59'0 0.0
2018-Feb-15 22:30N 30°01' W 093°59'0 0.0
2018-Feb-15 22:00N 30°01' W 093°59'0 0.0
2018-Feb-15 21:30N 30°01' W 093°59'0 0.0
2018-Feb-15 20:57N 30°01' W 093°59'0 0.0
2018-Feb-15 20:30N 30°01' W 093°59'0 0.0
2018-Feb-15 20:00N 30°01' W 093°59'0 0.0
2018-Feb-15 19:30N 30°01' W 093°59'0 0.0
2018-Feb-15 19:00N 30°01' W 093°59'0 0.0
2018-Feb-15 18:27N 30°01' W 093°59'0 0.0
2018-Feb-15 18:00N 30°01' W 093°59'0 0.0
2018-Feb-15 17:30N 30°01' W 093°59'0 0.0
2018-Feb-15 17:00N 30°01' W 093°59'0 0.0
2018-Feb-15 16:30N 30°01' W 093°59'0 0.0
2018-Feb-15 15:57N 30°01' W 093°59'0 0.0
2018-Feb-15 15:30N 30°01' W 093°59'0 0.0
2018-Feb-15 15:00N 30°01' W 093°59'0 0.0
2018-Feb-15 14:27N 30°01' W 093°59'0 0.0
2018-Feb-15 14:00N 30°01' W 093°59'0 0.0
2018-Feb-15 13:30N 30°01' W 093°59'0 0.0
2018-Feb-15 13:00N 30°01' W 093°59'0 0.0
2018-Feb-15 12:30N 30°01' W 093°59'0 0.0
2018-Feb-15 12:00N 30°01' W 093°59'0 0.0
2018-Feb-15 11:30N 30°01' W 093°59'0 0.0
2018-Feb-15 11:00N 30°01' W 093°59'0 0.0
2018-Feb-15 10:30N 30°01' W 093°59'0 0.0
2018-Feb-15 10:00N 30°01' W 093°59'0 0.0
2018-Feb-15 09:30N 30°01' W 093°59'0 0.0
2018-Feb-15 09:00N 30°01' W 093°59'0 0.0
2018-Feb-15 08:30N 30°01' W 093°59'0 0.0
2018-Feb-15 07:57N 30°01' W 093°59'0 0.0
2018-Feb-15 07:30N 30°01' W 093°59'0 0.0
2018-Feb-15 07:00N 30°01' W 093°59'0 0.0
2018-Feb-15 06:24N 30°01' W 093°59'0 0.0
2018-Feb-15 06:00N 30°01' W 093°59'0 0.0
2018-Feb-15 05:30N 30°01' W 093°59'0 0.0
2018-Feb-15 04:57N 30°01' W 093°59'0 0.0
2018-Feb-15 04:30N 30°01' W 093°59'0 0.0
2018-Feb-15 04:00N 30°01' W 093°59'0 0.0
2018-Feb-15 03:30N 30°01' W 093°59'0 0.0
2018-Feb-15 03:00N 30°01' W 093°59'0 0.0
2018-Feb-15 02:30N 30°01' W 093°59'0 0.0
2018-Feb-15 02:00N 30°01' W 093°59'0 0.0
2018-Feb-15 01:30N 30°01' W 093°59'0 0.0
2018-Feb-15 00:57N 30°01' W 093°59'0 0.0
2018-Feb-15 00:30N 30°01' W 093°59'0 0.0
2018-Feb-14 23:57N 30°01' W 093°59'0 0.0
2018-Feb-14 23:30N 30°01' W 093°59'0 0.0
2018-Feb-14 23:00N 30°01' W 093°59'0 0.0
2018-Feb-14 22:30N 30°01' W 093°59'0 0.0
2018-Feb-14 22:00N 30°01' W 093°59'0 0.0
2018-Feb-14 21:30N 30°01' W 093°59'0 0.0
2018-Feb-14 21:00N 30°01' W 093°59'0 0.0
2018-Feb-14 20:30N 30°01' W 093°59'0 0.0
2018-Feb-14 20:00N 30°01' W 093°59'0 0.0
2018-Feb-14 19:30N 30°01' W 093°59'0 0.0
2018-Feb-14 19:00N 30°01' W 093°59'0 0.0
2018-Feb-14 18:30N 30°01' W 093°59'0 0.0
2018-Feb-14 18:00N 30°01' W 093°59'0 0.0
2018-Feb-14 17:30N 30°01' W 093°59'0 0.0
2018-Feb-14 17:00N 30°01' W 093°59'0 0.0
2018-Feb-14 16:27N 30°01' W 093°59'0 0.0
2018-Feb-14 16:00N 30°01' W 093°59'0 0.0
2018-Feb-14 15:27N 30°01' W 093°59'0 0.0
2018-Feb-14 15:00N 30°01' W 093°59'0 0.0
2018-Feb-14 14:30N 30°01' W 093°59'0 0.0
2018-Feb-14 14:00N 30°01' W 093°59'0 0.0
2018-Feb-14 13:30N 30°01' W 093°59'0 0.0
2018-Feb-14 13:00N 30°01' W 093°59'0 0.0
2018-Feb-14 12:27N 30°01' W 093°59'0 0.0
2018-Feb-14 12:00N 30°01' W 093°59'0 0.0
2018-Feb-14 11:30N 30°01' W 093°59'0 0.0
2018-Feb-14 11:00N 30°01' W 093°59'0 0.0
2018-Feb-14 10:30N 30°01' W 093°59'0 0.0
2018-Feb-14 10:00N 30°01' W 093°59'0 0.0
2018-Feb-14 09:30N 30°01' W 093°59'0 0.0
2018-Feb-14 09:00N 30°01' W 093°59'0 0.0
2018-Feb-14 08:30N 30°01' W 093°59'0 0.0
2018-Feb-14 07:57N 30°01' W 093°59'0 0.0
2018-Feb-14 07:30N 30°01' W 093°59'0 0.0
2018-Feb-14 07:00N 30°01' W 093°59'0 0.0
2018-Feb-14 06:30N 30°01' W 093°59'0 0.0
2018-Feb-14 06:00N 30°01' W 093°59'0 0.0
2018-Feb-14 05:27N 30°01' W 093°59'0 0.0
2018-Feb-14 05:00N 30°01' W 093°59'0 0.0
2018-Feb-14 04:30N 30°01' W 093°59'0 0.0
2018-Feb-14 04:00N 30°01' W 093°59'0 0.0
2018-Feb-14 03:27N 30°01' W 093°59'0 0.0
2018-Feb-14 03:00N 30°01' W 093°59'0 0.0
2018-Feb-14 02:27N 30°01' W 093°59'0 0.0
2018-Feb-14 02:00N 30°01' W 093°59'0 0.0
2018-Feb-14 01:30N 30°01' W 093°59'0 0.0
2018-Feb-14 01:00N 30°01' W 093°59'0 0.0
2018-Feb-14 00:30N 30°01' W 093°59'0 0.0
2018-Feb-14 00:00N 30°01' W 093°59'0 0.0
2018-Feb-13 23:30N 30°01' W 093°59'0 0.0
2018-Feb-13 23:00N 30°01' W 093°59'0 0.0
2018-Feb-13 22:27N 30°01' W 093°59'0 0.0
2018-Feb-13 21:57N 30°01' W 093°59'0 0.0
2018-Feb-13 21:30N 30°01' W 093°59'0 0.0
2018-Feb-13 21:00N 30°01' W 093°59'0 0.0
2018-Feb-13 20:30N 30°01' W 093°59'0 0.0
2018-Feb-13 20:00N 30°01' W 093°59'0 0.0
2018-Feb-13 19:30N 30°01' W 093°59'0 0.0
2018-Feb-13 18:57N 30°01' W 093°59'0 0.0
2018-Feb-13 18:30N 30°01' W 093°59'0 0.0
2018-Feb-13 18:00N 30°01' W 093°59'0 0.0
2018-Feb-13 17:30N 30°01' W 093°59'0 0.0
2018-Feb-13 17:00N 30°01' W 093°59'0 0.0
2018-Feb-13 16:30N 30°01' W 093°59'0 0.0
2018-Feb-13 16:00N 30°01' W 093°59'0 0.0
2018-Feb-13 15:27N 30°01' W 093°59'0 0.0
2018-Feb-13 15:00N 30°01' W 093°59'0 0.0
2018-Feb-13 14:30N 30°01' W 093°59'0 0.0
2018-Feb-13 14:00N 30°01' W 093°59'0 0.0
2018-Feb-13 13:30N 30°01' W 093°59'0 0.0
2018-Feb-13 13:00N 30°01' W 093°59'0 0.0
2018-Feb-13 12:30N 30°01' W 093°59'0 0.0
2018-Feb-13 11:57N 30°01' W 093°59'0 0.0
2018-Feb-13 11:30N 30°01' W 093°59'0 0.0
2018-Feb-13 11:00N 30°01' W 093°59'0 0.0
2018-Feb-13 10:30N 30°01' W 093°59'0 0.0
2018-Feb-13 10:00N 30°01' W 093°59'0 0.0
2018-Feb-13 09:27N 30°01' W 093°59'0 0.0
2018-Feb-13 08:57N 30°01' W 093°59'0 0.0
2018-Feb-13 08:30N 30°01' W 093°59'0 0.0
2018-Feb-13 08:00N 30°01' W 093°59'0 0.0
2018-Feb-13 07:30N 30°01' W 093°59'0 0.0
2018-Feb-13 07:00N 30°01' W 093°59'0 0.0
2018-Feb-13 06:30N 30°01' W 093°59'0 0.0
2018-Feb-13 06:00N 30°01' W 093°59'0 0.0
2018-Feb-13 05:30N 30°01' W 093°59'0 0.0
2018-Feb-13 05:00N 30°01' W 093°59'0 0.0
2018-Feb-13 04:30N 30°01' W 093°59'0 0.0
2018-Feb-13 04:00N 30°01' W 093°59'0 0.0
2018-Feb-13 03:30N 30°01' W 093°59'0 0.0
2018-Feb-13 03:00N 30°01' W 093°59'0 0.0
2018-Feb-13 02:30N 30°01' W 093°59'0 0.0
2018-Feb-13 02:00N 30°01' W 093°59'0 0.0
2018-Feb-13 01:30N 30°01' W 093°59'0 0.0
2018-Feb-13 01:00N 30°01' W 093°59'0 0.0
2018-Feb-13 00:30N 30°01' W 093°59'0 0.0
2018-Feb-13 00:00N 30°01' W 093°59'0 0.0
2018-Feb-12 23:30N 30°01' W 093°59'0 0.0
2018-Feb-12 22:57N 30°01' W 093°59'0 0.0
2018-Feb-12 22:30N 30°01' W 093°59'0 0.0
2018-Feb-12 22:00N 30°01' W 093°59'0 0.0
2018-Feb-12 21:30N 30°01' W 093°59'0 0.0
2018-Feb-12 21:00N 30°01' W 093°59'0 0.0
2018-Feb-12 20:30N 30°01' W 093°59'0 0.0
2018-Feb-12 20:00N 30°01' W 093°59'0 0.0
2018-Feb-12 19:27N 30°01' W 093°59'0 0.1
2018-Feb-12 19:00N 30°01' W 093°59'0 0.8
2018-Feb-12 18:30N 30°01' W 093°59'2 4.6
2018-Feb-12 18:00N 29°60' W 093°56'2 3.7
2018-Feb-12 17:30N 29°59' W 093°54'0 0.2
2018-Feb-12 17:00N 29°59' W 093°54'0 0.0
2018-Feb-12 16:27N 29°59' W 093°54'0 0.0
2018-Feb-12 16:00N 29°59' W 093°54'0 0.0
2018-Feb-12 15:18N 29°59' W 093°54'0 0.0
2018-Feb-12 15:00N 29°59' W 093°54'0 0.0
2018-Feb-12 14:30N 29°59' W 093°54'0 0.0
2018-Feb-12 14:00N 29°59' W 093°54'0 0.0
2018-Feb-12 13:30N 29°59' W 093°54'0 0.0
2018-Feb-12 13:00N 29°59' W 093°54'0 0.0
2018-Feb-12 12:30N 29°59' W 093°54'0 0.0
2018-Feb-12 12:00N 29°59' W 093°54'0 0.0
2018-Feb-12 11:24N 29°59' W 093°54'0 0.0
2018-Feb-12 11:00N 29°59' W 093°54'0 0.0
2018-Feb-12 10:30N 29°59' W 093°54'0 0.0
2018-Feb-12 10:00N 29°59' W 093°54'0 0.0
2018-Feb-12 09:30N 29°59' W 093°54'0 0.0
2018-Feb-12 09:00N 29°59' W 093°54'0 0.0
2018-Feb-12 08:27N 29°59' W 093°54'0 0.0
2018-Feb-12 08:00N 29°59' W 093°54'0 0.0
2018-Feb-12 07:30N 29°59' W 093°54'0 0.0
2018-Feb-12 07:00N 29°59' W 093°54'0 0.0
2018-Feb-12 06:30N 29°59' W 093°54'0 0.0
2018-Feb-12 06:00N 29°59' W 093°54'0 0.0
2018-Feb-12 05:30N 29°59' W 093°54'0 0.0
2018-Feb-12 05:00N 29°59' W 093°54'0 0.0
2018-Feb-12 04:30N 29°59' W 093°54'0 0.1
2018-Feb-12 04:00N 29°59' W 093°54'0 0.0
2018-Feb-12 03:30N 29°59' W 093°54'0 0.0
2018-Feb-12 03:00N 29°59' W 093°54'0 0.0
2018-Feb-12 02:30N 29°59' W 093°54'0 0.0
2018-Feb-12 02:00N 29°59' W 093°54'0 0.0
2018-Feb-12 01:30N 29°59' W 093°54'0 0.0
2018-Feb-12 01:00N 29°59' W 093°54'0 0.0
2018-Feb-12 00:30N 29°59' W 093°54'0 0.0
2018-Feb-11 23:57N 29°59' W 093°54'0 0.0
2018-Feb-11 23:30N 29°59' W 093°54'0 0.0
2018-Feb-11 23:00N 29°59' W 093°54'0 0.0
2018-Feb-11 22:30N 29°59' W 093°54'0 0.0
2018-Feb-11 22:00N 29°59' W 093°54'0 0.0
2018-Feb-11 21:30N 29°59' W 093°54'0 0.0
2018-Feb-11 21:00N 29°59' W 093°54'0 0.0
2018-Feb-11 20:24N 29°59' W 093°54'0 0.0
2018-Feb-11 20:00N 29°59' W 093°54'0 0.1
2018-Feb-11 19:30N 29°59' W 093°54'0 0.0
2018-Feb-11 19:00N 29°59' W 093°54'0 0.0
2018-Feb-11 18:30N 29°59' W 093°54'0 0.0
2018-Feb-11 17:57N 29°59' W 093°54'0 0.0
2018-Feb-11 17:30N 29°59' W 093°54'0 0.0
2018-Feb-11 17:00N 29°59' W 093°54'0 0.0
2018-Feb-11 16:30N 29°59' W 093°54'0 0.0
2018-Feb-11 16:00N 29°59' W 093°54'0 0.0
2018-Feb-11 15:30N 29°59' W 093°54'0 0.0
2018-Feb-11 15:00N 29°59' W 093°54'0 0.0
2018-Feb-11 14:30N 29°59' W 093°54'0 0.0
2018-Feb-11 14:00N 29°59' W 093°54'0 0.0
2018-Feb-11 13:30N 29°59' W 093°54'0 0.0
2018-Feb-11 13:00N 29°59' W 093°54'0 0.0
2018-Feb-11 12:30N 29°59' W 093°54'0 0.0
2018-Feb-11 12:00N 29°59' W 093°54'0 0.0
2018-Feb-11 11:30N 29°59' W 093°54'0 0.0
2018-Feb-11 11:00N 29°59' W 093°54'0 0.0
2018-Feb-11 10:30N 29°59' W 093°54'0 0.0
2018-Feb-11 09:57N 29°59' W 093°54'0 0.0
2018-Feb-11 09:30N 29°59' W 093°54'0 0.0
2018-Feb-11 09:00N 29°59' W 093°54'0 0.0
2018-Feb-11 08:30N 29°59' W 093°54'0 0.0
2018-Feb-11 08:00N 29°59' W 093°54'0 0.0
2018-Feb-11 07:27N 29°59' W 093°54'0 0.0
2018-Feb-11 07:00N 29°59' W 093°54'0 0.0
2018-Feb-11 06:30N 29°59' W 093°54'0 0.0
2018-Feb-11 06:00N 29°59' W 093°54'0 0.0
2018-Feb-11 05:30N 29°59' W 093°54'0 0.0
2018-Feb-11 05:00N 29°59' W 093°54'0 0.0
2018-Feb-11 04:30N 29°59' W 093°54'0 0.0
2018-Feb-11 04:00N 29°59' W 093°54'0 0.0
2018-Feb-11 03:30N 29°59' W 093°54'0 0.0
2018-Feb-11 03:00N 29°59' W 093°54'0 0.0
2018-Feb-11 02:30N 29°59' W 093°54'0 0.0
2018-Feb-11 02:00N 29°59' W 093°54'0 0.0
2018-Feb-11 01:30N 29°59' W 093°54'0 0.0
2018-Feb-11 01:00N 29°59' W 093°54'0 0.0
2018-Feb-11 00:30N 29°59' W 093°54'0 0.0
2018-Feb-11 00:00N 29°59' W 093°54'0 0.0
2018-Feb-10 23:30N 29°59' W 093°54'0 0.0
2018-Feb-10 23:00N 29°59' W 093°54'0 0.0
2018-Feb-10 22:30N 29°59' W 093°54'0 0.0
2018-Feb-10 22:00N 29°59' W 093°54'0 0.0
2018-Feb-10 21:30N 29°59' W 093°54'0 0.0
2018-Feb-10 21:00N 29°59' W 093°54'0 0.0
2018-Feb-10 20:30N 29°59' W 093°54'0 0.0
2018-Feb-10 20:00N 29°59' W 093°54'0 0.0
2018-Feb-10 19:30N 29°59' W 093°54'0 0.0
2018-Feb-10 19:00N 29°59' W 093°54'0 0.0
2018-Feb-10 18:30N 29°59' W 093°54'0 0.0
2018-Feb-10 18:00N 29°59' W 093°54'0 0.0
2018-Feb-10 17:30N 29°59' W 093°54'0 0.0
2018-Feb-10 17:00N 29°59' W 093°54'0 0.2
2018-Feb-10 16:30N 29°59' W 093°54'0 0.0
2018-Feb-10 15:57N 29°59' W 093°54'0 0.0
2018-Feb-10 15:30N 29°59' W 093°54'0 0.0
2018-Feb-10 15:00N 29°59' W 093°54'0 0.0
2018-Feb-10 14:30N 29°59' W 093°54'0 0.0
2018-Feb-10 14:00N 29°59' W 093°54'0 0.0
2018-Feb-10 13:30N 29°59' W 093°54'0 0.0
2018-Feb-10 13:00N 29°59' W 093°54'0 0.0
2018-Feb-10 12:30N 29°59' W 093°54'0 0.0
2018-Feb-10 12:00N 29°59' W 093°54'0 0.0
2018-Feb-10 11:30N 29°59' W 093°54'0 0.0
2018-Feb-10 11:00N 29°59' W 093°54'0 0.0
2018-Feb-10 10:30N 29°59' W 093°55'0 0.0
2018-Feb-10 10:00N 29°59' W 093°54'0 0.0
2018-Feb-10 09:30N 29°59' W 093°54'0 0.0
2018-Feb-10 09:00N 29°59' W 093°54'0 0.0
2018-Feb-10 08:30N 29°59' W 093°54'0 0.0
2018-Feb-10 08:00N 29°59' W 093°54'0 0.0
2018-Feb-10 07:30N 29°59' W 093°54'0 0.0
2018-Feb-10 07:00N 29°59' W 093°54'0 0.0
2018-Feb-10 06:30N 29°59' W 093°54'0 0.0
2018-Feb-10 06:00N 29°59' W 093°54'0 0.0
2018-Feb-10 05:30N 29°59' W 093°54'0 0.0
2018-Feb-10 05:00N 29°59' W 093°54'0 0.0
2018-Feb-10 04:30N 29°59' W 093°54'0 0.0
2018-Feb-10 04:00N 29°59' W 093°54'0 0.0
2018-Feb-10 03:30N 29°59' W 093°54'0 0.0
2018-Feb-10 03:00N 29°59' W 093°54'0 0.0
2018-Feb-10 02:30N 29°59' W 093°54'0 0.0
2018-Feb-10 02:00N 29°59' W 093°54'0 0.0
2018-Feb-10 01:30N 29°59' W 093°54'0 0.0
2018-Feb-10 01:00N 29°59' W 093°54'0 0.0
2018-Feb-10 00:30N 29°59' W 093°54'0 0.0
2018-Feb-10 00:00N 29°59' W 093°54'0 0.0
2018-Feb-09 23:30N 29°59' W 093°54'0 0.0
2018-Feb-09 23:00N 29°59' W 093°54'0 0.0
2018-Feb-09 22:45N 29°59' W 093°54'  
Track history (hours):
 
Tides and Currents Weather Stations Pressure Air Temp Water Temp Dewpoint Dewpoint Depression Visibility Wind Speed Wind Dir Waves Ship Positions

Pacific Treasures

Last reported at 2018-Feb-19 17:45 UTC. Time now 2018-Feb-20 23:07 UTC.
Position N 28°35' W 094°15'.

Length 256 m; draft 10.2 m.

Type: Tanker. MMSI: 538006773.

Date/timePositionNaut miles runAvg speedWind from/ knotsBaromVisibWave heightAir tempDewpointWater temp
2018-Feb-19 17:45N 28°35' W 094°15'0 0.0
2018-Feb-19 17:27N 28°35' W 094°15'0 0.0
2018-Feb-19 16:42N 28°35' W 094°15'0 0.0
2018-Feb-19 08:39N 28°35' W 094°15'0 0.0
2018-Feb-19 08:24N 28°35' W 094°15'0 0.0
2018-Feb-19 07:54N 28°35' W 094°15'0 0.0
2018-Feb-19 07:30N 28°35' W 094°15'0 0.0
2018-Feb-19 07:00N 28°35' W 094°15'0 0.1
2018-Feb-19 06:12N 28°35' W 094°15'0 0.5
2018-Feb-19 06:00N 28°35' W 094°15'2 3.7
2018-Feb-19 05:30N 28°36' W 094°13'4 7.7
2018-Feb-19 05:00N 28°37' W 094°09'510.0
2018-Feb-19 04:30N 28°40' W 094°05'612.9
2018-Feb-19 04:00N 28°44' W 093°59'712.8
2018-Feb-19 03:28N 28°48' W 093°53'612.7
2018-Feb-19 02:59N 28°52' W 093°47'2312.1
2018-Feb-19 01:02N 29°14' W 093°40'012.0
2018-Feb-19 01:00N 29°15' W 093°40'910.4
2018-Feb-19 00:09N 29°24' W 093°41'2 7.2
2018-Feb-18 23:54N 29°25' W 093°40'410.6
2018-Feb-18 23:30N 29°30' W 093°41'612.6
2018-Feb-18 23:00N 29°34' W 093°46'611.5
2018-Feb-18 22:30N 29°39' W 093°50'4 8.9
2018-Feb-18 22:00N 29°43' W 093°51'3 6.8
2018-Feb-18 21:30N 29°45' W 093°54'4 7.4
2018-Feb-18 21:01N 29°48' W 093°57'4 7.1
2018-Feb-18 20:30N 29°51' W 093°57'4 7.5
2018-Feb-18 20:00N 29°54' W 093°54'4 7.5
2018-Feb-18 19:30N 29°57' W 093°52'2 4.7
2018-Feb-18 19:00N 29°59' W 093°53'3 6.6
2018-Feb-18 18:30N 29°60' W 093°57'2 4.7
2018-Feb-18 18:00N 30°01' W 093°60'0 0.3
2018-Feb-18 17:30N 30°01' W 093°60'0 0.0
2018-Feb-18 16:59N 30°01' W 093°60'0 0.0
2018-Feb-18 16:29N 30°01' W 093°60'0 0.0
2018-Feb-18 15:59N 30°01' W 093°60'0 0.0
2018-Feb-18 15:29N 30°01' W 093°60'0 0.0
2018-Feb-18 14:59N 30°01' W 093°60'0 0.0
2018-Feb-18 14:29N 30°01' W 093°60'0 0.0
2018-Feb-18 14:01N 30°01' W 093°60'0 0.0
2018-Feb-18 13:28N 30°01' W 093°60'0 0.0
2018-Feb-18 12:58N 30°01' W 093°60'0 0.0
2018-Feb-18 12:28N 30°01' W 093°60'0 0.0
2018-Feb-18 12:00N 30°01' W 093°60'0 0.0
2018-Feb-18 11:28N 30°01' W 093°60'0 0.0
2018-Feb-18 10:58N 30°01' W 093°60'0 0.0
2018-Feb-18 10:28N 30°01' W 093°60'0 0.0
2018-Feb-18 09:58N 30°01' W 093°60'0 0.0
2018-Feb-18 09:28N 30°01' W 093°60'0 0.0
2018-Feb-18 09:01N 30°01' W 093°60'0 0.0
2018-Feb-18 08:30N 30°01' W 093°60'0 0.0
2018-Feb-18 07:57N 30°01' W 093°60'0 0.0
2018-Feb-18 07:30N 30°01' W 093°60'0 0.0
2018-Feb-18 07:00N 30°01' W 093°60'0 0.0
2018-Feb-18 06:30N 30°01' W 093°60'0 0.0
2018-Feb-18 05:57N 30°01' W 093°60'0 0.0
2018-Feb-18 05:30N 30°01' W 093°60'0 0.0
2018-Feb-18 05:00N 30°01' W 093°60'0 0.1
2018-Feb-18 04:30N 30°01' W 093°60'0 0.0
2018-Feb-18 04:00N 30°01' W 093°60'0 0.0
2018-Feb-18 03:30N 30°01' W 093°60'0 0.0
2018-Feb-18 03:00N 30°01' W 093°60'0 0.0
2018-Feb-18 02:30N 30°01' W 093°60'0 0.1
2018-Feb-18 02:00N 30°01' W 093°60'0 0.0
2018-Feb-18 01:30N 30°01' W 093°60'0 0.0
2018-Feb-18 01:00N 30°01' W 093°60'0 0.0
2018-Feb-18 00:30N 30°01' W 093°60'0 0.0
2018-Feb-18 00:00N 30°01' W 093°60'0 0.0
2018-Feb-17 23:30N 30°01' W 093°60'0 0.0
2018-Feb-17 23:00N 30°01' W 093°60'0 0.0
2018-Feb-17 22:30N 30°01' W 093°60'0 0.0
2018-Feb-17 22:00N 30°01' W 093°60'0 0.2
2018-Feb-17 21:30N 30°01' W 093°60'0 0.5
2018-Feb-17 21:00N 30°01' W 093°59'0 0.1
2018-Feb-17 20:30N 30°01' W 093°59'0 0.0
2018-Feb-17 19:54N 30°01' W 093°59'0 0.0
2018-Feb-17 19:30N 30°01' W 093°59'0 0.0
2018-Feb-17 18:57N 30°01' W 093°59'0 0.0
2018-Feb-17 18:27N 30°01' W 093°59'0 0.0
2018-Feb-17 18:00N 30°01' W 093°59'0 0.0
2018-Feb-17 17:30N 30°01' W 093°59'0 0.0
2018-Feb-17 17:00N 30°01' W 093°59'0 0.0
2018-Feb-17 16:30N 30°01' W 093°59'0 0.0
2018-Feb-17 16:00N 30°01' W 093°59'0 0.0
2018-Feb-17 15:30N 30°01' W 093°59'0 0.0
2018-Feb-17 15:00N 30°01' W 093°59'0 0.0
2018-Feb-17 14:27N 30°01' W 093°59'0 0.0
2018-Feb-17 14:00N 30°01' W 093°59'0 0.0
2018-Feb-17 13:30N 30°01' W 093°59'0 0.0
2018-Feb-17 13:00N 30°01' W 093°59'0 0.0
2018-Feb-17 12:24N 30°01' W 093°59'0 0.0
2018-Feb-17 12:00N 30°01' W 093°59'0 0.0
2018-Feb-17 11:30N 30°01' W 093°59'0 0.0
2018-Feb-17 11:00N 30°01' W 093°59'0 0.0
2018-Feb-17 10:30N 30°01' W 093°59'0 0.0
2018-Feb-17 10:00N 30°01' W 093°59'0 0.0
2018-Feb-17 09:27N 30°01' W 093°59'0 0.0
2018-Feb-17 09:00N 30°01' W 093°59'0 0.0
2018-Feb-17 08:30N 30°01' W 093°59'0 0.0
2018-Feb-17 08:00N 30°01' W 093°59'0 0.0
2018-Feb-17 07:30N 30°01' W 093°59'0 0.0
2018-Feb-17 07:00N 30°01' W 093°59'0 0.0
2018-Feb-17 06:30N 30°01' W 093°59'0 0.0
2018-Feb-17 06:00N 30°01' W 093°59'0 0.0
2018-Feb-17 05:30N 30°01' W 093°59'0 0.0
2018-Feb-17 05:00N 30°01' W 093°59'0 0.0
2018-Feb-17 04:30N 30°01' W 093°59'0 0.0
2018-Feb-17 03:57N 30°01' W 093°59'0 0.0
2018-Feb-17 03:30N 30°01' W 093°59'0 0.0
2018-Feb-17 02:57N 30°01' W 093°59'0 0.0
2018-Feb-17 02:30N 30°01' W 093°59'0 0.0
2018-Feb-17 02:00N 30°01' W 093°59'0 0.0
2018-Feb-17 01:30N 30°01' W 093°59'0 0.0
2018-Feb-17 01:00N 30°01' W 093°59'0 0.0
2018-Feb-17 00:27N 30°01' W 093°59'0 0.0
2018-Feb-17 00:00N 30°01' W 093°59'0 0.0
2018-Feb-16 23:27N 30°01' W 093°59'0 0.0
2018-Feb-16 23:00N 30°01' W 093°59'0 0.0
2018-Feb-16 22:30N 30°01' W 093°59'0 0.0
2018-Feb-16 22:00N 30°01' W 093°59'0 0.0
2018-Feb-16 21:27N 30°01' W 093°59'0 0.0
2018-Feb-16 21:00N 30°01' W 093°59'0 0.0
2018-Feb-16 20:30N 30°01' W 093°59'0 0.0
2018-Feb-16 20:00N 30°01' W 093°59'0 0.0
2018-Feb-16 19:30N 30°01' W 093°59'0 0.0
2018-Feb-16 19:00N 30°01' W 093°59'0 0.0
2018-Feb-16 18:30N 30°01' W 093°59'0 0.0
2018-Feb-16 18:00N 30°01' W 093°59'0 0.0
2018-Feb-16 17:30N 30°01' W 093°59'0 0.0
2018-Feb-16 17:00N 30°01' W 093°59'0 0.0
2018-Feb-16 16:24N 30°01' W 093°59'0 0.0
2018-Feb-16 16:00N 30°01' W 093°59'0 0.0
2018-Feb-16 15:27N 30°01' W 093°59'0 0.0
2018-Feb-16 15:00N 30°01' W 093°59'0 0.0
2018-Feb-16 14:30N 30°01' W 093°59'0 0.0
2018-Feb-16 14:00N 30°01' W 093°59'0 0.0
2018-Feb-16 13:30N 30°01' W 093°59'0 0.0
2018-Feb-16 13:00N 30°01' W 093°59'0 0.0
2018-Feb-16 12:30N 30°01' W 093°59'0 0.0
2018-Feb-16 12:00N 30°01' W 093°59'0 0.0
2018-Feb-16 11:30N 30°01' W 093°59'0 0.0
2018-Feb-16 10:57N 30°01' W 093°59'0 0.0
2018-Feb-16 10:30N 30°01' W 093°59'0 0.0
2018-Feb-16 10:00N 30°01' W 093°59'0 0.0
2018-Feb-16 09:30N 30°01' W 093°59'0 0.0
2018-Feb-16 08:57N 30°01' W 093°59'0 0.0
2018-Feb-16 08:30N 30°01' W 093°59'0 0.0
2018-Feb-16 08:00N 30°01' W 093°59'0 0.0
2018-Feb-16 07:30N 30°01' W 093°59'0 0.0
2018-Feb-16 07:00N 30°01' W 093°59'0 0.0
2018-Feb-16 06:24N 30°01' W 093°59'0 0.0
2018-Feb-16 06:00N 30°01' W 093°59'0 0.0
2018-Feb-16 05:30N 30°01' W 093°59'0 0.0
2018-Feb-16 04:51N 30°01' W 093°59'0 0.0
2018-Feb-16 04:30N 30°01' W 093°59'0 0.0
2018-Feb-16 04:00N 30°01' W 093°59'0 0.0
2018-Feb-16 03:30N 30°01' W 093°59'0 0.0
2018-Feb-16 02:57N 30°01' W 093°59'0 0.0
2018-Feb-16 02:30N 30°01' W 093°59'0 0.0
2018-Feb-16 02:00N 30°01' W 093°59'0 0.0
2018-Feb-16 01:30N 30°01' W 093°59'0 0.0
2018-Feb-16 01:00N 30°01' W 093°59'0 0.0
2018-Feb-16 00:30N 30°01' W 093°59'0 0.0
2018-Feb-15 23:57N 30°01' W 093°59'0 0.0
2018-Feb-15 23:27N 30°01' W 093°59'0 0.0
2018-Feb-15 23:00N 30°01' W 093°59'0 0.0
2018-Feb-15 22:30N 30°01' W 093°59'0 0.0
2018-Feb-15 22:00N 30°01' W 093°59'0 0.0
2018-Feb-15 21:30N 30°01' W 093°59'0 0.0
2018-Feb-15 20:57N 30°01' W 093°59'0 0.0
2018-Feb-15 20:30N 30°01' W 093°59'0 0.0
2018-Feb-15 20:00N 30°01' W 093°59'0 0.0
2018-Feb-15 19:30N 30°01' W 093°59'0 0.0
2018-Feb-15 19:00N 30°01' W 093°59'0 0.0
2018-Feb-15 18:27N 30°01' W 093°59'0 0.0
2018-Feb-15 18:00N 30°01' W 093°59'0 0.0
2018-Feb-15 17:30N 30°01' W 093°59'0 0.0
2018-Feb-15 17:00N 30°01' W 093°59'0 0.0
2018-Feb-15 16:30N 30°01' W 093°59'0 0.0
2018-Feb-15 15:57N 30°01' W 093°59'0 0.0
2018-Feb-15 15:30N 30°01' W 093°59'0 0.0
2018-Feb-15 15:00N 30°01' W 093°59'0 0.0
2018-Feb-15 14:27N 30°01' W 093°59'0 0.0
2018-Feb-15 14:00N 30°01' W 093°59'0 0.0
2018-Feb-15 13:30N 30°01' W 093°59'0 0.0
2018-Feb-15 13:00N 30°01' W 093°59'0 0.0
2018-Feb-15 12:30N 30°01' W 093°59'0 0.0
2018-Feb-15 12:00N 30°01' W 093°59'0 0.0
2018-Feb-15 11:30N 30°01' W 093°59'0 0.0
2018-Feb-15 11:00N 30°01' W 093°59'0 0.0
2018-Feb-15 10:30N 30°01' W 093°59'0 0.0
2018-Feb-15 10:00N 30°01' W 093°59'0 0.0
2018-Feb-15 09:30N 30°01' W 093°59'0 0.0
2018-Feb-15 09:00N 30°01' W 093°59'0 0.0
2018-Feb-15 08:30N 30°01' W 093°59'0 0.0
2018-Feb-15 07:57N 30°01' W 093°59'0 0.0
2018-Feb-15 07:30N 30°01' W 093°59'0 0.0
2018-Feb-15 07:00N 30°01' W 093°59'0 0.0
2018-Feb-15 06:24N 30°01' W 093°59'0 0.0
2018-Feb-15 06:00N 30°01' W 093°59'0 0.0
2018-Feb-15 05:30N 30°01' W 093°59'0 0.0
2018-Feb-15 04:57N 30°01' W 093°59'0 0.0
2018-Feb-15 04:30N 30°01' W 093°59'0 0.0
2018-Feb-15 04:00N 30°01' W 093°59'0 0.0
2018-Feb-15 03:30N 30°01' W 093°59'0 0.0
2018-Feb-15 03:00N 30°01' W 093°59'0 0.0
2018-Feb-15 02:30N 30°01' W 093°59'0 0.0
2018-Feb-15 02:00N 30°01' W 093°59'0 0.0
2018-Feb-15 01:30N 30°01' W 093°59'0 0.0
2018-Feb-15 00:57N 30°01' W 093°59'0 0.0
2018-Feb-15 00:30N 30°01' W 093°59'0 0.0
2018-Feb-14 23:57N 30°01' W 093°59'0 0.0
2018-Feb-14 23:30N 30°01' W 093°59'0 0.0
2018-Feb-14 23:00N 30°01' W 093°59'0 0.0
2018-Feb-14 22:30N 30°01' W 093°59'0 0.0
2018-Feb-14 22:00N 30°01' W 093°59'0 0.0
2018-Feb-14 21:30N 30°01' W 093°59'0 0.0
2018-Feb-14 21:00N 30°01' W 093°59'0 0.0
2018-Feb-14 20:30N 30°01' W 093°59'0 0.0
2018-Feb-14 20:00N 30°01' W 093°59'0 0.0
2018-Feb-14 19:30N 30°01' W 093°59'0 0.0
2018-Feb-14 19:00N 30°01' W 093°59'0 0.0
2018-Feb-14 18:30N 30°01' W 093°59'0 0.0
2018-Feb-14 18:00N 30°01' W 093°59'0 0.0
2018-Feb-14 17:30N 30°01' W 093°59'0 0.0
2018-Feb-14 17:00N 30°01' W 093°59'0 0.0
2018-Feb-14 16:27N 30°01' W 093°59'0 0.0
2018-Feb-14 16:00N 30°01' W 093°59'0 0.0
2018-Feb-14 15:27N 30°01' W 093°59'0 0.0
2018-Feb-14 15:00N 30°01' W 093°59'0 0.0
2018-Feb-14 14:30N 30°01' W 093°59'0 0.0
2018-Feb-14 14:00N 30°01' W 093°59'0 0.0
2018-Feb-14 13:30N 30°01' W 093°59'0 0.0
2018-Feb-14 13:00N 30°01' W 093°59'0 0.0
2018-Feb-14 12:27N 30°01' W 093°59'0 0.0
2018-Feb-14 12:00N 30°01' W 093°59'0 0.0
2018-Feb-14 11:30N 30°01' W 093°59'0 0.0
2018-Feb-14 11:00N 30°01' W 093°59'0 0.0
2018-Feb-14 10:30N 30°01' W 093°59'0 0.0
2018-Feb-14 10:00N 30°01' W 093°59'0 0.0
2018-Feb-14 09:30N 30°01' W 093°59'0 0.0
2018-Feb-14 09:00N 30°01' W 093°59'0 0.0
2018-Feb-14 08:30N 30°01' W 093°59'0 0.0
2018-Feb-14 07:57N 30°01' W 093°59'0 0.0
2018-Feb-14 07:30N 30°01' W 093°59'0 0.0
2018-Feb-14 07:00N 30°01' W 093°59'0 0.0
2018-Feb-14 06:30N 30°01' W 093°59'0 0.0
2018-Feb-14 06:00N 30°01' W 093°59'0 0.0
2018-Feb-14 05:27N 30°01' W 093°59'0 0.0
2018-Feb-14 05:00N 30°01' W 093°59'0 0.0
2018-Feb-14 04:30N 30°01' W 093°59'0 0.0
2018-Feb-14 04:00N 30°01' W 093°59'0 0.0
2018-Feb-14 03:27N 30°01' W 093°59'0 0.0
2018-Feb-14 03:00N 30°01' W 093°59'0 0.0
2018-Feb-14 02:27N 30°01' W 093°59'0 0.0
2018-Feb-14 02:00N 30°01' W 093°59'0 0.0
2018-Feb-14 01:30N 30°01' W 093°59'0 0.0
2018-Feb-14 01:00N 30°01' W 093°59'0 0.0
2018-Feb-14 00:30N 30°01' W 093°59'0 0.0
2018-Feb-14 00:00N 30°01' W 093°59'0 0.0
2018-Feb-13 23:30N 30°01' W 093°59'0 0.0
2018-Feb-13 23:00N 30°01' W 093°59'0 0.0
2018-Feb-13 22:27N 30°01' W 093°59'0 0.0
2018-Feb-13 21:57N 30°01' W 093°59'0 0.0
2018-Feb-13 21:30N 30°01' W 093°59'0 0.0
2018-Feb-13 21:00N 30°01' W 093°59'0 0.0
2018-Feb-13 20:30N 30°01' W 093°59'0 0.0
2018-Feb-13 20:00N 30°01' W 093°59'0 0.0
2018-Feb-13 19:30N 30°01' W 093°59'0 0.0
2018-Feb-13 18:57N 30°01' W 093°59'0 0.0
2018-Feb-13 18:30N 30°01' W 093°59'0 0.0
2018-Feb-13 18:00N 30°01' W 093°59'0 0.0
2018-Feb-13 17:30N 30°01' W 093°59'0 0.0
2018-Feb-13 17:00N 30°01' W 093°59'0 0.0
2018-Feb-13 16:30N 30°01' W 093°59'0 0.0
2018-Feb-13 16:00N 30°01' W 093°59'0 0.0
2018-Feb-13 15:27N 30°01' W 093°59'0 0.0
2018-Feb-13 15:00N 30°01' W 093°59'0 0.0
2018-Feb-13 14:30N 30°01' W 093°59'0 0.0
2018-Feb-13 14:00N 30°01' W 093°59'0 0.0
2018-Feb-13 13:30N 30°01' W 093°59'0 0.0
2018-Feb-13 13:00N 30°01' W 093°59'0 0.0
2018-Feb-13 12:30N 30°01' W 093°59'0 0.0
2018-Feb-13 11:57N 30°01' W 093°59'0 0.0
2018-Feb-13 11:30N 30°01' W 093°59'0 0.0
2018-Feb-13 11:00N 30°01' W 093°59'0 0.0
2018-Feb-13 10:30N 30°01' W 093°59'0 0.0
2018-Feb-13 10:00N 30°01' W 093°59'0 0.0
2018-Feb-13 09:27N 30°01' W 093°59'0 0.0
2018-Feb-13 08:57N 30°01' W 093°59'0 0.0
2018-Feb-13 08:30N 30°01' W 093°59'0 0.0
2018-Feb-13 08:00N 30°01' W 093°59'0 0.0
2018-Feb-13 07:30N 30°01' W 093°59'0 0.0
2018-Feb-13 07:00N 30°01' W 093°59'0 0.0
2018-Feb-13 06:30N 30°01' W 093°59'0 0.0
2018-Feb-13 06:00N 30°01' W 093°59'0 0.0
2018-Feb-13 05:30N 30°01' W 093°59'0 0.0
2018-Feb-13 05:00N 30°01' W 093°59'0 0.0
2018-Feb-13 04:30N 30°01' W 093°59'0 0.0
2018-Feb-13 04:00N 30°01' W 093°59'0 0.0
2018-Feb-13 03:30N 30°01' W 093°59'0 0.0
2018-Feb-13 03:00N 30°01' W 093°59'0 0.0
2018-Feb-13 02:30N 30°01' W 093°59'0 0.0
2018-Feb-13 02:00N 30°01' W 093°59'0 0.0
2018-Feb-13 01:30N 30°01' W 093°59'0 0.0
2018-Feb-13 01:00N 30°01' W 093°59'0 0.0
2018-Feb-13 00:30N 30°01' W 093°59'0 0.0
2018-Feb-13 00:00N 30°01' W 093°59'0 0.0
2018-Feb-12 23:30N 30°01' W 093°59'0 0.0
2018-Feb-12 22:57N 30°01' W 093°59'0 0.0
2018-Feb-12 22:30N 30°01' W 093°59'0 0.0
2018-Feb-12 22:00N 30°01' W 093°59'0 0.0
2018-Feb-12 21:30N 30°01' W 093°59'0 0.0
2018-Feb-12 21:00N 30°01' W 093°59'0 0.0
2018-Feb-12 20:30N 30°01' W 093°59'0 0.0
2018-Feb-12 20:00N 30°01' W 093°59'0 0.0
2018-Feb-12 19:27N 30°01' W 093°59'0 0.1
2018-Feb-12 19:00N 30°01' W 093°59'0 0.8
2018-Feb-12 18:30N 30°01' W 093°59'2 4.6
2018-Feb-12 18:00N 29°60' W 093°56'2 3.7
2018-Feb-12 17:30N 29°59' W 093°54'0 0.2
2018-Feb-12 17:00N 29°59' W 093°54'0 0.0
2018-Feb-12 16:27N 29°59' W 093°54'0 0.0
2018-Feb-12 16:00N 29°59' W 093°54'0 0.0
2018-Feb-12 15:18N 29°59' W 093°54'0 0.0
2018-Feb-12 15:00N 29°59' W 093°54'0 0.0
2018-Feb-12 14:30N 29°59' W 093°54'0 0.0
2018-Feb-12 14:00N 29°59' W 093°54'0 0.0
2018-Feb-12 13:30N 29°59' W 093°54'0 0.0
2018-Feb-12 13:00N 29°59' W 093°54'0 0.0
2018-Feb-12 12:30N 29°59' W 093°54'0 0.0
2018-Feb-12 12:00N 29°59' W 093°54'0 0.0
2018-Feb-12 11:24N 29°59' W 093°54'0 0.0
2018-Feb-12 11:00N 29°59' W 093°54'0 0.0
2018-Feb-12 10:30N 29°59' W 093°54'0 0.0
2018-Feb-12 10:00N 29°59' W 093°54'0 0.0
2018-Feb-12 09:30N 29°59' W 093°54'0 0.0
2018-Feb-12 09:00N 29°59' W 093°54'0 0.0
2018-Feb-12 08:27N 29°59' W 093°54'0 0.0
2018-Feb-12 08:00N 29°59' W 093°54'0 0.0
2018-Feb-12 07:30N 29°59' W 093°54'0 0.0
2018-Feb-12 07:00N 29°59' W 093°54'0 0.0
2018-Feb-12 06:30N 29°59' W 093°54'0 0.0
2018-Feb-12 06:00N 29°59' W 093°54'0 0.0
2018-Feb-12 05:30N 29°59' W 093°54'0 0.0
2018-Feb-12 05:00N 29°59' W 093°54'0 0.0
2018-Feb-12 04:30N 29°59' W 093°54'0 0.1
2018-Feb-12 04:00N 29°59' W 093°54'0 0.0
2018-Feb-12 03:30N 29°59' W 093°54'0 0.0
2018-Feb-12 03:00N 29°59' W 093°54'0 0.0
2018-Feb-12 02:30N 29°59' W 093°54'0 0.0
2018-Feb-12 02:00N 29°59' W 093°54'0 0.0
2018-Feb-12 01:30N 29°59' W 093°54'0 0.0
2018-Feb-12 01:00N 29°59' W 093°54'0 0.0
2018-Feb-12 00:30N 29°59' W 093°54'0 0.0
2018-Feb-11 23:57N 29°59' W 093°54'0 0.0
2018-Feb-11 23:30N 29°59' W 093°54'0 0.0
2018-Feb-11 23:00N 29°59' W 093°54'0 0.0
2018-Feb-11 22:30N 29°59' W 093°54'0 0.0
2018-Feb-11 22:00N 29°59' W 093°54'0 0.0
2018-Feb-11 21:30N 29°59' W 093°54'0 0.0
2018-Feb-11 21:00N 29°59' W 093°54'0 0.0
2018-Feb-11 20:24N 29°59' W 093°54'0 0.0
2018-Feb-11 20:00N 29°59' W 093°54'0 0.1
2018-Feb-11 19:30N 29°59' W 093°54'0 0.0
2018-Feb-11 19:00N 29°59' W 093°54'0 0.0
2018-Feb-11 18:30N 29°59' W 093°54'0 0.0
2018-Feb-11 17:57N 29°59' W 093°54'0 0.0
2018-Feb-11 17:30N 29°59' W 093°54'0 0.0
2018-Feb-11 17:00N 29°59' W 093°54'0 0.0
2018-Feb-11 16:30N 29°59' W 093°54'0 0.0
2018-Feb-11 16:00N 29°59' W 093°54'0 0.0
2018-Feb-11 15:30N 29°59' W 093°54'0 0.0
2018-Feb-11 15:00N 29°59' W 093°54'0 0.0
2018-Feb-11 14:30N 29°59' W 093°54'0 0.0
2018-Feb-11 14:00N 29°59' W 093°54'0 0.0
2018-Feb-11 13:30N 29°59' W 093°54'0 0.0
2018-Feb-11 13:00N 29°59' W 093°54'0 0.0
2018-Feb-11 12:30N 29°59' W 093°54'0 0.0
2018-Feb-11 12:00N 29°59' W 093°54'0 0.0
2018-Feb-11 11:30N 29°59' W 093°54'0 0.0
2018-Feb-11 11:00N 29°59' W 093°54'0 0.0
2018-Feb-11 10:30N 29°59' W 093°54'0 0.0
2018-Feb-11 09:57N 29°59' W 093°54'0 0.0
2018-Feb-11 09:30N 29°59' W 093°54'0 0.0
2018-Feb-11 09:00N 29°59' W 093°54'0 0.0
2018-Feb-11 08:30N 29°59' W 093°54'0 0.0
2018-Feb-11 08:00N 29°59' W 093°54'0 0.0
2018-Feb-11 07:27N 29°59' W 093°54'0 0.0
2018-Feb-11 07:00N 29°59' W 093°54'0 0.0
2018-Feb-11 06:30N 29°59' W 093°54'0 0.0
2018-Feb-11 06:00N 29°59' W 093°54'0 0.0
2018-Feb-11 05:30N 29°59' W 093°54'0 0.0
2018-Feb-11 05:00N 29°59' W 093°54'0 0.0
2018-Feb-11 04:30N 29°59' W 093°54'0 0.0
2018-Feb-11 04:00N 29°59' W 093°54'0 0.0
2018-Feb-11 03:30N 29°59' W 093°54'0 0.0
2018-Feb-11 03:00N 29°59' W 093°54'0 0.0
2018-Feb-11 02:30N 29°59' W 093°54'0 0.0
2018-Feb-11 02:00N 29°59' W 093°54'0 0.0
2018-Feb-11 01:30N 29°59' W 093°54'0 0.0
2018-Feb-11 01:00N 29°59' W 093°54'0 0.0
2018-Feb-11 00:30N 29°59' W 093°54'0 0.0
2018-Feb-11 00:00N 29°59' W 093°54'0 0.0
2018-Feb-10 23:30N 29°59' W 093°54'0 0.0
2018-Feb-10 23:00N 29°59' W 093°54'0 0.0
2018-Feb-10 22:30N 29°59' W 093°54'0 0.0
2018-Feb-10 22:00N 29°59' W 093°54'0 0.0
2018-Feb-10 21:30N 29°59' W 093°54'0 0.0
2018-Feb-10 21:00N 29°59' W 093°54'0 0.0
2018-Feb-10 20:30N 29°59' W 093°54'0 0.0
2018-Feb-10 20:00N 29°59' W 093°54'0 0.0
2018-Feb-10 19:30N 29°59' W 093°54'0 0.0
2018-Feb-10 19:00N 29°59' W 093°54'0 0.0
2018-Feb-10 18:30N 29°59' W 093°54'0 0.0
2018-Feb-10 18:00N 29°59' W 093°54'0 0.0
2018-Feb-10 17:30N 29°59' W 093°54'0 0.0
2018-Feb-10 17:00N 29°59' W 093°54'0 0.2
2018-Feb-10 16:30N 29°59' W 093°54'0 0.0
2018-Feb-10 15:57N 29°59' W 093°54'0 0.0
2018-Feb-10 15:30N 29°59' W 093°54'0 0.0
2018-Feb-10 15:00N 29°59' W 093°54'0 0.0
2018-Feb-10 14:30N 29°59' W 093°54'0 0.0
2018-Feb-10 14:00N 29°59' W 093°54'0 0.0
2018-Feb-10 13:30N 29°59' W 093°54'0 0.0
2018-Feb-10 13:00N 29°59' W 093°54'0 0.0
2018-Feb-10 12:30N 29°59' W 093°54'0 0.0
2018-Feb-10 12:00N 29°59' W 093°54'0 0.0
2018-Feb-10 11:30N 29°59' W 093°54'0 0.0
2018-Feb-10 11:00N 29°59' W 093°54'0 0.0
2018-Feb-10 10:30N 29°59' W 093°55'0 0.0
2018-Feb-10 10:00N 29°59' W 093°54'0 0.0
2018-Feb-10 09:30N 29°59' W 093°54'0 0.0
2018-Feb-10 09:00N 29°59' W 093°54'0 0.0
2018-Feb-10 08:30N 29°59' W 093°54'0 0.0
2018-Feb-10 08:00N 29°59' W 093°54'0 0.0
2018-Feb-10 07:30N 29°59' W 093°54'0 0.0
2018-Feb-10 07:00N 29°59' W 093°54'0 0.0
2018-Feb-10 06:30N 29°59' W 093°54'0 0.0
2018-Feb-10 06:00N 29°59' W 093°54'0 0.0
2018-Feb-10 05:30N 29°59' W 093°54'0 0.0
2018-Feb-10 05:00N 29°59' W 093°54'0 0.0
2018-Feb-10 04:30N 29°59' W 093°54'0 0.0
2018-Feb-10 04:00N 29°59' W 093°54'0 0.0
2018-Feb-10 03:30N 29°59' W 093°54'0 0.0
2018-Feb-10 03:00N 29°59' W 093°54'0 0.0
2018-Feb-10 02:30N 29°59' W 093°54'0 0.0
2018-Feb-10 02:00N 29°59' W 093°54'0 0.0
2018-Feb-10 01:30N 29°59' W 093°54'0 0.0
2018-Feb-10 01:00N 29°59' W 093°54'0 0.0
2018-Feb-10 00:30N 29°59' W 093°54'0 0.0
2018-Feb-10 00:00N 29°59' W 093°54'0 0.0
2018-Feb-09 23:30N 29°59' W 093°54'0 0.0
2018-Feb-09 23:00N 29°59' W 093°54'0 0.0
2018-Feb-09 22:45N 29°59' W 093°54'  

Dump ship's entire track history